FIN864 ESGG-EFHK
Flight info
| Callsign | FIN864 |
|---|---|
| Flight time | 1h 20m |
| Altitude | 32000 |
| Route | LABAN4J LABAN Y430 TINKA DCT TUSNI DCT RIKUM DCT RIRIP Y364 LAKUT LAKUT7A |
| Aircraft | E190/M-SDE3GILORVW/S |
Departure
| Time | 2026-04-22 00:18 |
|---|---|
| Airport | Göteborg Landvetter Airport (ESGG) |
Arrival
| Time | 2026-04-22 01:39 |
|---|---|
| Airport | Helsinki Vantaa Airport (EFHK) |
| Time | Latitude | Longitude | Altitude | Speed | Heading |
|---|---|---|---|---|---|
| 2026-04-21 23:58 | 57.66775 | 12.29326 | 521 ft | 0 kts | 116° |
| 2026-04-22 00:06 | 57.66777 | 12.29321 | 521 ft | 3 kts | 116° |
| 2026-04-22 00:06 | 57.66787 | 12.29278 | 521 ft | 3 kts | 115° |
| 2026-04-22 00:07 | 57.66795 | 12.29242 | 521 ft | 4 kts | 85° |
| 2026-04-22 00:07 | 57.66786 | 12.29199 | 520 ft | 4 kts | 66° |
| 2026-04-22 00:07 | 57.66776 | 12.29157 | 518 ft | 4 kts | 47° |
| 2026-04-22 00:07 | 57.66756 | 12.29128 | 517 ft | 4 kts | 25° |
| 2026-04-22 00:08 | 57.66739 | 12.29113 | 517 ft | 0 kts | 26° |
| 2026-04-22 00:12 | 57.66740 | 12.29114 | 517 ft | 1 kts | 36° |
| 2026-04-22 00:12 | 57.66750 | 12.29129 | 517 ft | 3 kts | 37° |
| 2026-04-22 00:12 | 57.66777 | 12.29164 | 518 ft | 6 kts | 29° |
| 2026-04-22 00:12 | 57.66827 | 12.29215 | 519 ft | 10 kts | 29° |
| 2026-04-22 00:13 | 57.66904 | 12.29286 | 519 ft | 15 kts | 23° |
| 2026-04-22 00:13 | 57.67007 | 12.29221 | 514 ft | 20 kts | 315° |
| 2026-04-22 00:13 | 57.67135 | 12.29271 | 514 ft | 21 kts | 29° |
| 2026-04-22 00:13 | 57.67276 | 12.29399 | 514 ft | 25 kts | 25° |
| 2026-04-22 00:14 | 57.67432 | 12.29537 | 515 ft | 22 kts | 25° |
| 2026-04-22 00:14 | 57.67537 | 12.29578 | 517 ft | 13 kts | 324° |
| 2026-04-22 00:14 | 57.67585 | 12.29428 | 516 ft | 13 kts | 296° |
| 2026-04-22 00:14 | 57.67592 | 12.29366 | 515 ft | 0 kts | 272° |
| 2026-04-22 00:15 | 57.67592 | 12.29359 | 515 ft | 2 kts | 272° |
| 2026-04-22 00:16 | 57.67593 | 12.29308 | 515 ft | 6 kts | 273° |
| 2026-04-22 00:16 | 57.67595 | 12.29213 | 515 ft | 9 kts | 269° |
| 2026-04-22 00:16 | 57.67563 | 12.29142 | 515 ft | 0 kts | 206° |
| 2026-04-22 00:17 | 57.67563 | 12.29141 | 515 ft | 1 kts | 206° |
| 2026-04-22 00:17 | 57.67514 | 12.29097 | 513 ft | 26 kts | 205° |
| 2026-04-22 00:17 | 57.67122 | 12.28738 | 520 ft | 98 kts | 206° |
| 2026-04-22 00:18 | 57.66300 | 12.27979 | 529 ft | 161 kts | 208° |
| 2026-04-22 00:18 | 57.65204 | 12.26971 | 1019 ft | 188 kts | 207° |
| 2026-04-22 00:18 | 57.63947 | 12.25860 | 1887 ft | 213 kts | 206° |
| 2026-04-22 00:18 | 57.62623 | 12.24762 | 2675 ft | 192 kts | 197° |
| 2026-04-22 00:19 | 57.61268 | 12.24613 | 3166 ft | 202 kts | 166° |
| 2026-04-22 00:19 | 57.59951 | 12.25525 | 3430 ft | 202 kts | 153° |
| 2026-04-22 00:19 | 57.58766 | 12.26761 | 3934 ft | 191 kts | 144° |
| 2026-04-22 00:19 | 57.57695 | 12.28116 | 4761 ft | 185 kts | 140° |
| 2026-04-22 00:20 | 57.56724 | 12.29866 | 4986 ft | 206 kts | 121° |
| 2026-04-22 00:20 | 57.56139 | 12.32382 | 5124 ft | 215 kts | 97° |
| 2026-04-22 00:20 | 57.56167 | 12.35118 | 5155 ft | 210 kts | 71° |
| 2026-04-22 00:20 | 57.56778 | 12.37507 | 5153 ft | 207 kts | 53° |
| 2026-04-22 00:21 | 57.57619 | 12.39723 | 5052 ft | 208 kts | 51° |
| 2026-04-22 00:21 | 57.58481 | 12.41912 | 5391 ft | 216 kts | 51° |
| 2026-04-22 00:21 | 57.59289 | 12.44368 | 6089 ft | 230 kts | 62° |
| 2026-04-22 00:21 | 57.59934 | 12.47192 | 6785 ft | 241 kts | 65° |
| 2026-04-22 00:22 | 57.60567 | 12.50282 | 7058 ft | 270 kts | 67° |
| 2026-04-22 00:22 | 57.61206 | 12.53642 | 7762 ft | 277 kts | 68° |
| 2026-04-22 00:22 | 57.61863 | 12.57023 | 8628 ft | 277 kts | 64° |
| 2026-04-22 00:22 | 57.62981 | 12.59873 | 9455 ft | 273 kts | 37° |
| 2026-04-22 00:23 | 57.64541 | 12.61917 | 10237 ft | 280 kts | 32° |
| 2026-04-22 00:23 | 57.66240 | 12.63998 | 10463 ft | 304 kts | 32° |
| 2026-04-22 00:23 | 57.68068 | 12.66280 | 10700 ft | 326 kts | 33° |
| 2026-04-22 00:23 | 57.69953 | 12.68694 | 11373 ft | 330 kts | 33° |
| 2026-04-22 00:24 | 57.71838 | 12.71150 | 12225 ft | 331 kts | 33° |
| 2026-04-22 00:24 | 57.73734 | 12.73619 | 13097 ft | 332 kts | 33° |
| 2026-04-22 00:24 | 57.75643 | 12.76091 | 13920 ft | 336 kts | 33° |
| 2026-04-22 00:24 | 57.77573 | 12.78588 | 14706 ft | 339 kts | 33° |
| 2026-04-22 00:25 | 57.79521 | 12.81120 | 15497 ft | 342 kts | 33° |
| 2026-04-22 00:25 | 57.81486 | 12.83666 | 16294 ft | 345 kts | 32° |
| 2026-04-22 00:25 | 57.83472 | 12.86237 | 17086 ft | 348 kts | 32° |
| 2026-04-22 00:25 | 57.85448 | 12.88783 | 17872 ft | 351 kts | 32° |
| 2026-04-22 00:26 | 57.87471 | 12.91385 | 18636 ft | 354 kts | 31° |
| 2026-04-22 00:26 | 57.89508 | 12.94008 | 19307 ft | 357 kts | 31° |
| 2026-04-22 00:26 | 57.91567 | 12.96663 | 19953 ft | 359 kts | 31° |
| 2026-04-22 00:26 | 57.93635 | 12.99334 | 20598 ft | 361 kts | 31° |
| 2026-04-22 00:27 | 57.95713 | 13.02018 | 21208 ft | 364 kts | 31° |
| 2026-04-22 00:27 | 57.97810 | 13.04721 | 21804 ft | 366 kts | 31° |
| 2026-04-22 00:27 | 57.99919 | 13.07439 | 22381 ft | 369 kts | 31° |
| 2026-04-22 00:27 | 58.02047 | 13.10185 | 22987 ft | 372 kts | 31° |
| 2026-04-22 00:28 | 58.04188 | 13.12946 | 23592 ft | 374 kts | 31° |
| 2026-04-22 00:28 | 58.06342 | 13.15728 | 24166 ft | 377 kts | 31° |
| 2026-04-22 00:28 | 58.08512 | 13.18531 | 24680 ft | 379 kts | 31° |
| 2026-04-22 00:28 | 58.10698 | 13.21360 | 25200 ft | 382 kts | 31° |
| 2026-04-22 00:29 | 58.12901 | 13.24208 | 25725 ft | 385 kts | 31° |
| 2026-04-22 00:29 | 58.15119 | 13.27074 | 26202 ft | 388 kts | 31° |
| 2026-04-22 00:29 | 58.17262 | 13.30255 | 26640 ft | 395 kts | 42° |
| 2026-04-22 00:29 | 58.18974 | 13.34394 | 27086 ft | 401 kts | 50° |
| 2026-04-22 00:30 | 58.20590 | 13.38733 | 27508 ft | 404 kts | 51° |
| 2026-04-22 00:30 | 58.22197 | 13.43141 | 27898 ft | 407 kts | 52° |
| 2026-04-22 00:30 | 58.23795 | 13.47580 | 28316 ft | 409 kts | 52° |
| 2026-04-22 00:30 | 58.25405 | 13.52065 | 28685 ft | 412 kts | 52° |
| 2026-04-22 00:31 | 58.27027 | 13.56568 | 29063 ft | 414 kts | 52° |
| 2026-04-22 00:31 | 58.28660 | 13.61098 | 29481 ft | 415 kts | 52° |
| 2026-04-22 00:31 | 58.30283 | 13.65602 | 30099 ft | 412 kts | 52° |
| 2026-04-22 00:31 | 58.31898 | 13.70097 | 30549 ft | 411 kts | 52° |
| 2026-04-22 00:32 | 58.33508 | 13.74592 | 30941 ft | 411 kts | 52° |
| 2026-04-22 00:32 | 58.35110 | 13.79081 | 31383 ft | 408 kts | 52° |
| 2026-04-22 00:32 | 58.36697 | 13.83541 | 31775 ft | 407 kts | 53° |
| 2026-04-22 00:32 | 58.38284 | 13.88010 | 32160 ft | 406 kts | 53° |
| 2026-04-22 00:33 | 58.39833 | 13.92385 | 32487 ft | 405 kts | 53° |
| 2026-04-22 00:33 | 58.41428 | 13.96892 | 32295 ft | 416 kts | 53° |
| 2026-04-22 00:33 | 58.43059 | 14.01517 | 32333 ft | 422 kts | 53° |
| 2026-04-22 00:34 | 58.46339 | 14.10864 | 32293 ft | 424 kts | 53° |
| 2026-04-22 00:34 | 58.49618 | 14.20231 | 32274 ft | 424 kts | 53° |
| 2026-04-22 00:35 | 58.52887 | 14.29604 | 32269 ft | 424 kts | 54° |
| 2026-04-22 00:35 | 58.56156 | 14.38998 | 32262 ft | 424 kts | 53° |
| 2026-04-22 00:36 | 58.59445 | 14.48359 | 32268 ft | 424 kts | 53° |
| 2026-04-22 00:36 | 58.62728 | 14.57745 | 32264 ft | 424 kts | 54° |
| 2026-04-22 00:37 | 58.66003 | 14.67160 | 32276 ft | 424 kts | 54° |
| 2026-04-22 00:37 | 58.69269 | 14.76587 | 32283 ft | 424 kts | 54° |
| 2026-04-22 00:38 | 58.72509 | 14.85976 | 32287 ft | 423 kts | 54° |
| 2026-04-22 00:38 | 58.75780 | 14.95494 | 32292 ft | 424 kts | 54° |
| 2026-04-22 00:39 | 58.79019 | 15.04954 | 32294 ft | 423 kts | 54° |
| 2026-04-22 00:39 | 58.82264 | 15.14472 | 32292 ft | 424 kts | 54° |
| 2026-04-22 00:40 | 58.85500 | 15.23999 | 32293 ft | 424 kts | 54° |
| 2026-04-22 00:40 | 58.88721 | 15.33522 | 32283 ft | 424 kts | 54° |
| 2026-04-22 00:41 | 58.91940 | 15.43082 | 32283 ft | 424 kts | 54° |
| 2026-04-22 00:41 | 58.95126 | 15.52574 | 32285 ft | 423 kts | 54° |
| 2026-04-22 00:42 | 58.98325 | 15.62149 | 32281 ft | 423 kts | 54° |
| 2026-04-22 00:42 | 59.01512 | 15.71737 | 32279 ft | 423 kts | 54° |
| 2026-04-22 00:43 | 59.04702 | 15.81354 | 32273 ft | 423 kts | 54° |
| 2026-04-22 00:43 | 59.07878 | 15.90981 | 32277 ft | 423 kts | 54° |
| 2026-04-22 00:44 | 59.11047 | 16.00615 | 32275 ft | 423 kts | 55° |
| 2026-04-22 00:44 | 59.14200 | 16.10248 | 32275 ft | 422 kts | 55° |
| 2026-04-22 00:45 | 59.17352 | 16.19912 | 32273 ft | 422 kts | 55° |
| 2026-04-22 00:45 | 59.20439 | 16.29640 | 32282 ft | 423 kts | 60° |
| 2026-04-22 00:46 | 59.22992 | 16.40018 | 32272 ft | 424 kts | 62° |
| 2026-04-22 00:46 | 59.25490 | 16.50481 | 32271 ft | 424 kts | 62° |
| 2026-04-22 00:47 | 59.27980 | 16.60941 | 32258 ft | 424 kts | 62° |
| 2026-04-22 00:47 | 59.30461 | 16.71393 | 32265 ft | 424 kts | 62° |
| 2026-04-22 00:48 | 59.32937 | 16.81877 | 32265 ft | 424 kts | 62° |
| 2026-04-22 00:48 | 59.35561 | 16.92177 | 32259 ft | 423 kts | 59° |
| 2026-04-22 00:49 | 59.38311 | 17.02359 | 32265 ft | 422 kts | 60° |
| 2026-04-22 00:49 | 59.40985 | 17.12613 | 32256 ft | 422 kts | 60° |
| 2026-04-22 00:50 | 59.43627 | 17.22827 | 32254 ft | 422 kts | 60° |
| 2026-04-22 00:50 | 59.46282 | 17.33114 | 32246 ft | 422 kts | 60° |
| 2026-04-22 00:51 | 59.48929 | 17.43414 | 32239 ft | 421 kts | 60° |
| 2026-04-22 00:51 | 59.51562 | 17.53704 | 32229 ft | 421 kts | 60° |
| 2026-04-22 00:52 | 59.54186 | 17.64012 | 32224 ft | 421 kts | 60° |
| 2026-04-22 00:52 | 59.56801 | 17.74332 | 32219 ft | 421 kts | 60° |
| 2026-04-22 00:53 | 59.59406 | 17.84665 | 32216 ft | 420 kts | 61° |
| 2026-04-22 00:53 | 59.61999 | 17.94999 | 32211 ft | 420 kts | 61° |
| 2026-04-22 00:54 | 59.64585 | 18.05346 | 32217 ft | 421 kts | 61° |
| 2026-04-22 00:54 | 59.67172 | 18.15751 | 32214 ft | 420 kts | 61° |
| 2026-04-22 00:55 | 59.69743 | 18.26137 | 32214 ft | 420 kts | 61° |
| 2026-04-22 00:55 | 59.73584 | 18.41742 | 32226 ft | 420 kts | 61° |
| 2026-04-22 00:56 | 59.76134 | 18.52166 | 32221 ft | 420 kts | 61° |
| 2026-04-22 00:56 | 59.78245 | 18.60835 | 32227 ft | 420 kts | 62° |
| 2026-04-22 00:57 | 59.81187 | 18.72981 | 32227 ft | 420 kts | 62° |
| 2026-04-22 00:57 | 59.83715 | 18.83455 | 32216 ft | 420 kts | 62° |
| 2026-04-22 00:58 | 59.86230 | 18.93945 | 32219 ft | 420 kts | 62° |
| 2026-04-22 00:58 | 59.88334 | 19.02751 | 32220 ft | 420 kts | 62° |
| 2026-04-22 00:59 | 59.90823 | 19.13201 | 32211 ft | 420 kts | 62° |
| 2026-04-22 00:59 | 59.93316 | 19.23758 | 32213 ft | 420 kts | 62° |
| 2026-04-22 01:00 | 59.95821 | 19.34374 | 32204 ft | 420 kts | 62° |
| 2026-04-22 01:00 | 59.97797 | 19.45266 | 32216 ft | 425 kts | 72° |
| 2026-04-22 01:01 | 59.99209 | 19.56748 | 32187 ft | 425 kts | 73° |
| 2026-04-22 01:01 | 60.00568 | 19.68238 | 32187 ft | 425 kts | 73° |
| 2026-04-22 01:02 | 60.01935 | 19.79749 | 32187 ft | 425 kts | 73° |
| 2026-04-22 01:02 | 60.03297 | 19.91257 | 32191 ft | 425 kts | 73° |
| 2026-04-22 01:03 | 60.04645 | 20.02786 | 32182 ft | 426 kts | 73° |
| 2026-04-22 01:03 | 60.05975 | 20.14259 | 32184 ft | 425 kts | 73° |
| 2026-04-22 01:04 | 60.07314 | 20.25893 | 32171 ft | 426 kts | 74° |
| 2026-04-22 01:04 | 60.08635 | 20.37471 | 32171 ft | 426 kts | 74° |
| 2026-04-22 01:05 | 60.09944 | 20.49044 | 32170 ft | 426 kts | 74° |
| 2026-04-22 01:05 | 60.11245 | 20.60646 | 32154 ft | 426 kts | 74° |
| 2026-04-22 01:06 | 60.12536 | 20.72245 | 32161 ft | 426 kts | 74° |
| 2026-04-22 01:06 | 60.13808 | 20.83790 | 32159 ft | 427 kts | 75° |
| 2026-04-22 01:07 | 60.15073 | 20.95392 | 32152 ft | 427 kts | 75° |
| 2026-04-22 01:07 | 60.16332 | 21.07016 | 32149 ft | 427 kts | 75° |
| 2026-04-22 01:08 | 60.17589 | 21.18712 | 32149 ft | 427 kts | 75° |
| 2026-04-22 01:08 | 60.18831 | 21.30384 | 32137 ft | 427 kts | 75° |
| 2026-04-22 01:09 | 60.20067 | 21.42073 | 32143 ft | 428 kts | 75° |
| 2026-04-22 01:09 | 60.21298 | 21.53766 | 32133 ft | 428 kts | 75° |
| 2026-04-22 01:10 | 60.22541 | 21.65481 | 32133 ft | 428 kts | 75° |
| 2026-04-22 01:10 | 60.23773 | 21.77219 | 32123 ft | 429 kts | 75° |
| 2026-04-22 01:11 | 60.24990 | 21.88964 | 32114 ft | 429 kts | 76° |
| 2026-04-22 01:11 | 60.26202 | 22.00752 | 32109 ft | 429 kts | 76° |
| 2026-04-22 01:12 | 60.27402 | 22.12525 | 32100 ft | 430 kts | 76° |
| 2026-04-22 01:12 | 60.28593 | 22.24328 | 32095 ft | 430 kts | 76° |
| 2026-04-22 01:13 | 60.29765 | 22.36064 | 32095 ft | 430 kts | 76° |
| 2026-04-22 01:13 | 60.30945 | 22.47976 | 32095 ft | 430 kts | 76° |
| 2026-04-22 01:14 | 60.32098 | 22.59739 | 31733 ft | 420 kts | 76° |
| 2026-04-22 01:14 | 60.32646 | 22.65407 | 31438 ft | 414 kts | 76° |
| 2026-04-22 01:14 | 60.33210 | 22.71244 | 30896 ft | 422 kts | 77° |
| 2026-04-22 01:15 | 60.33773 | 22.77109 | 30315 ft | 429 kts | 77° |
| 2026-04-22 01:15 | 60.34340 | 22.83081 | 29624 ft | 432 kts | 77° |
| 2026-04-22 01:15 | 60.34899 | 22.89044 | 29102 ft | 433 kts | 77° |
| 2026-04-22 01:15 | 60.35453 | 22.94953 | 28486 ft | 434 kts | 77° |
| 2026-04-22 01:16 | 60.36015 | 23.00971 | 27906 ft | 430 kts | 77° |
| 2026-04-22 01:16 | 60.36564 | 23.06852 | 27389 ft | 424 kts | 77° |
| 2026-04-22 01:16 | 60.37098 | 23.12617 | 26785 ft | 422 kts | 77° |
| 2026-04-22 01:16 | 60.37638 | 23.18484 | 26281 ft | 416 kts | 77° |
| 2026-04-22 01:17 | 60.38156 | 23.24155 | 25743 ft | 414 kts | 77° |
| 2026-04-22 01:17 | 60.38675 | 23.29860 | 25123 ft | 413 kts | 77° |
| 2026-04-22 01:17 | 60.39190 | 23.35531 | 24654 ft | 407 kts | 77° |
| 2026-04-22 01:17 | 60.39700 | 23.41171 | 24066 ft | 406 kts | 77° |
| 2026-04-22 01:18 | 60.40203 | 23.46755 | 23551 ft | 402 kts | 77° |
| 2026-04-22 01:18 | 60.40699 | 23.52298 | 22994 ft | 398 kts | 77° |
| 2026-04-22 01:18 | 60.41188 | 23.57777 | 22448 ft | 396 kts | 77° |
| 2026-04-22 01:18 | 60.41672 | 23.63234 | 21982 ft | 393 kts | 77° |
| 2026-04-22 01:19 | 60.42150 | 23.68655 | 21390 ft | 392 kts | 77° |
| 2026-04-22 01:19 | 60.42623 | 23.74059 | 20897 ft | 387 kts | 77° |
| 2026-04-22 01:19 | 60.43089 | 23.79392 | 20417 ft | 383 kts | 77° |
| 2026-04-22 01:19 | 60.43552 | 23.84698 | 19866 ft | 382 kts | 77° |
| 2026-04-22 01:20 | 60.43995 | 23.89962 | 19457 ft | 374 kts | 78° |
| 2026-04-22 01:20 | 60.44329 | 23.95122 | 18897 ft | 367 kts | 81° |
| 2026-04-22 01:20 | 60.44582 | 24.00196 | 18375 ft | 360 kts | 81° |
| 2026-04-22 01:20 | 60.44816 | 24.05162 | 17938 ft | 345 kts | 81° |
| 2026-04-22 01:21 | 60.45064 | 24.09862 | 17524 ft | 330 kts | 80° |
| 2026-04-22 01:21 | 60.45329 | 24.14421 | 17075 ft | 319 kts | 79° |
| 2026-04-22 01:21 | 60.45592 | 24.18809 | 16610 ft | 310 kts | 79° |
| 2026-04-22 01:21 | 60.45841 | 24.23070 | 16258 ft | 299 kts | 79° |
| 2026-04-22 01:22 | 60.46068 | 24.27232 | 15826 ft | 293 kts | 80° |
| 2026-04-22 01:22 | 60.46235 | 24.31244 | 15432 ft | 287 kts | 82° |
| 2026-04-22 01:22 | 60.46363 | 24.35168 | 15135 ft | 275 kts | 82° |
| 2026-04-22 01:22 | 60.46487 | 24.38967 | 14799 ft | 277 kts | 81° |
| 2026-04-22 01:23 | 60.46638 | 24.42902 | 14380 ft | 280 kts | 81° |
| 2026-04-22 01:23 | 60.46782 | 24.46637 | 14390 ft | 252 kts | 81° |
| 2026-04-22 01:23 | 60.46905 | 24.50019 | 14355 ft | 230 kts | 80° |
| 2026-04-22 01:23 | 60.47023 | 24.53171 | 14172 ft | 219 kts | 79° |
| 2026-04-22 01:24 | 60.47148 | 24.56205 | 13899 ft | 215 kts | 79° |
| 2026-04-22 01:24 | 60.47279 | 24.59241 | 13428 ft | 220 kts | 79° |
| 2026-04-22 01:24 | 60.47244 | 24.62461 | 12765 ft | 239 kts | 92° |
| 2026-04-22 01:24 | 60.47001 | 24.65885 | 12145 ft | 253 kts | 95° |
| 2026-04-22 01:25 | 60.46688 | 24.69476 | 11481 ft | 266 kts | 97° |
| 2026-04-22 01:25 | 60.46328 | 24.73135 | 11215 ft | 262 kts | 97° |
| 2026-04-22 01:25 | 60.46218 | 24.76772 | 10827 ft | 256 kts | 75° |
| 2026-04-22 01:25 | 60.46873 | 24.80040 | 10519 ft | 248 kts | 58° |
| 2026-04-22 01:26 | 60.47696 | 24.83120 | 10184 ft | 248 kts | 58° |
| 2026-04-22 01:26 | 60.48505 | 24.86168 | 9912 ft | 243 kts | 58° |
| 2026-04-22 01:26 | 60.49302 | 24.89178 | 9391 ft | 241 kts | 58° |
| 2026-04-22 01:26 | 60.50099 | 24.92187 | 8751 ft | 244 kts | 58° |
| 2026-04-22 01:27 | 60.50907 | 24.95233 | 8216 ft | 243 kts | 58° |
| 2026-04-22 01:27 | 60.51668 | 24.98139 | 8116 ft | 226 kts | 58° |
| 2026-04-22 01:27 | 60.52393 | 25.00937 | 7752 ft | 222 kts | 58° |
| 2026-04-22 01:27 | 60.53113 | 25.03711 | 7343 ft | 223 kts | 58° |
| 2026-04-22 01:28 | 60.53833 | 25.06484 | 6968 ft | 221 kts | 58° |
| 2026-04-22 01:28 | 60.54555 | 25.09253 | 6572 ft | 221 kts | 58° |
| 2026-04-22 01:28 | 60.55261 | 25.11969 | 6180 ft | 221 kts | 58° |
| 2026-04-22 01:28 | 60.55971 | 25.14725 | 5807 ft | 219 kts | 58° |
| 2026-04-22 01:29 | 60.56689 | 25.17500 | 5438 ft | 218 kts | 58° |
| 2026-04-22 01:29 | 60.57387 | 25.20184 | 5100 ft | 217 kts | 58° |
| 2026-04-22 01:29 | 60.58079 | 25.22863 | 4909 ft | 207 kts | 58° |
| 2026-04-22 01:29 | 60.58738 | 25.25431 | 4650 ft | 204 kts | 58° |
| 2026-04-22 01:30 | 60.59393 | 25.27978 | 4353 ft | 204 kts | 58° |
| 2026-04-22 01:30 | 60.60055 | 25.30524 | 4033 ft | 204 kts | 58° |
| 2026-04-22 01:30 | 60.60612 | 25.33143 | 3702 ft | 207 kts | 75° |
| 2026-04-22 01:30 | 60.60570 | 25.36078 | 3399 ft | 210 kts | 108° |
| 2026-04-22 01:31 | 60.59707 | 25.38421 | 3045 ft | 210 kts | 148° |
| 2026-04-22 01:31 | 60.58362 | 25.39210 | 3054 ft | 198 kts | 178° |
| 2026-04-22 01:31 | 60.56978 | 25.39184 | 3070 ft | 201 kts | 198° |
| 2026-04-22 01:31 | 60.55726 | 25.37953 | 3159 ft | 203 kts | 212° |
| 2026-04-22 01:32 | 60.54439 | 25.36687 | 3042 ft | 208 kts | 208° |
| 2026-04-22 01:32 | 60.53141 | 25.35490 | 2990 ft | 198 kts | 208° |
| 2026-04-22 01:32 | 60.51884 | 25.34319 | 2976 ft | 200 kts | 207° |
| 2026-04-22 01:32 | 60.50553 | 25.33448 | 3027 ft | 205 kts | 197° |
| 2026-04-22 01:33 | 60.49180 | 25.32678 | 3036 ft | 200 kts | 202° |
| 2026-04-22 01:33 | 60.47983 | 25.31311 | 2925 ft | 197 kts | 230° |
| 2026-04-22 01:33 | 60.47156 | 25.29206 | 3073 ft | 194 kts | 236° |
| 2026-04-22 01:33 | 60.46228 | 25.27144 | 2986 ft | 198 kts | 228° |
| 2026-04-22 01:34 | 60.45290 | 25.25172 | 2988 ft | 193 kts | 232° |
| 2026-04-22 01:34 | 60.44428 | 25.23165 | 2896 ft | 186 kts | 232° |
| 2026-04-22 01:34 | 60.43594 | 25.21312 | 2849 ft | 171 kts | 232° |
| 2026-04-22 01:34 | 60.42823 | 25.19609 | 2926 ft | 156 kts | 232° |
| 2026-04-22 01:35 | 60.42117 | 25.18024 | 2841 ft | 155 kts | 233° |
| 2026-04-22 01:35 | 60.41391 | 25.16400 | 2652 ft | 153 kts | 233° |
| 2026-04-22 01:35 | 60.40678 | 25.14822 | 2416 ft | 149 kts | 233° |
| 2026-04-22 01:35 | 60.39993 | 25.13300 | 2218 ft | 144 kts | 234° |
| 2026-04-22 01:36 | 60.39330 | 25.11804 | 2012 ft | 141 kts | 233° |
| 2026-04-22 01:36 | 60.38661 | 25.10316 | 1870 ft | 146 kts | 233° |
| 2026-04-22 01:36 | 60.37978 | 25.08806 | 1632 ft | 146 kts | 233° |
| 2026-04-22 01:36 | 60.37306 | 25.07313 | 1448 ft | 142 kts | 233° |
| 2026-04-22 01:37 | 60.36662 | 25.05878 | 1286 ft | 133 kts | 233° |
| 2026-04-22 01:37 | 60.36033 | 25.04483 | 1068 ft | 135 kts | 232° |
| 2026-04-22 01:37 | 60.35410 | 25.03111 | 880 ft | 132 kts | 231° |
| 2026-04-22 01:37 | 60.34796 | 25.01744 | 736 ft | 130 kts | 232° |
| 2026-04-22 01:38 | 60.34186 | 25.00359 | 561 ft | 133 kts | 230° |
| 2026-04-22 01:38 | 60.33565 | 24.99014 | 350 ft | 129 kts | 229° |
| 2026-04-22 01:38 | 60.32965 | 24.97704 | 183 ft | 126 kts | 230° |
| 2026-04-22 01:38 | 60.32477 | 24.96597 | 161 ft | 73 kts | 229° |
| 2026-04-22 01:39 | 60.32323 | 24.96260 | 161 ft | 0 kts | 227° |
| 2026-04-22 01:39 | 60.32318 | 24.96250 | 161 ft | 7 kts | 227° |
| 2026-04-22 01:39 | 60.32257 | 24.96116 | 163 ft | 19 kts | 227° |
| 2026-04-22 01:39 | 60.32148 | 24.95878 | 163 ft | 23 kts | 226° |
| 2026-04-22 01:40 | 60.32005 | 24.95884 | 161 ft | 18 kts | 137° |
| 2026-04-22 01:40 | 60.31941 | 24.96011 | 160 ft | 15 kts | 135° |
| 2026-04-22 01:40 | 60.31894 | 24.96100 | 160 ft | 0 kts | 137° |
| 2026-04-22 01:42 | 60.31887 | 24.96113 | 160 ft | 3 kts | 137° |
| 2026-04-22 01:42 | 60.31863 | 24.96170 | 160 ft | 7 kts | 121° |
| 2026-04-22 01:42 | 60.31858 | 24.96294 | 160 ft | 11 kts | 73° |
| 2026-04-22 01:43 | 60.31909 | 24.96437 | 160 ft | 14 kts | 49° |
| 2026-04-22 01:43 | 60.31983 | 24.96602 | 160 ft | 18 kts | 47° |
| 2026-04-22 01:43 | 60.32072 | 24.96797 | 160 ft | 20 kts | 51° |
| 2026-04-22 01:43 | 60.32046 | 24.96966 | 160 ft | 11 kts | 151° |
| 2026-04-22 01:44 | 60.31975 | 24.97043 | 160 ft | 13 kts | 152° |
| 2026-04-22 01:44 | 60.31921 | 24.97100 | 160 ft | 12 kts | 152° |
| 2026-04-22 01:44 | 60.31892 | 24.97130 | 160 ft | 1 kts | 152° |
| 2026-04-22 01:44 | 60.31886 | 24.97137 | 160 ft | 3 kts | 153° |
| 2026-04-22 01:45 | 60.31858 | 24.97149 | 160 ft | 5 kts | 191° |
| 2026-04-22 01:45 | 60.31838 | 24.97098 | 160 ft | 2 kts | 241° |
| 2026-04-22 01:45 | 60.31828 | 24.97058 | 160 ft | 3 kts | 242° |
| 2026-04-22 01:45 | 60.31824 | 24.97044 | 160 ft | 0 kts | 242° |
| 2026-04-22 01:46 | 60.31824 | 24.97043 | 160 ft | 0 kts | 242° |